Time;durP1;ratioP1;P1;durP2;ratioP2;P2;SDS_P1;SDS_P2;PMS_P1;PMS_P2;Temp;Humidity;BMP_temperature;BMP_pressure;BME280_temperature;BME280_humidity;BME280_pressure;Samples;Min_cycle;Max_cycle;Signal;HPM_P1;HPM_P2
2023/07/26 00:01:49;;;;;;;22.07;14.97;;;15.20;99.90;;;;;;5047506;28;20520;-68
2023/07/26 00:04:16;;;;;;;22.43;13.67;;;15.20;99.90;;;;;;5047195;28;20470;-67
2023/07/26 00:06:43;;;;;;;18.53;15.40;;;15.10;99.90;;;;;;5046838;28;20661;-69
2023/07/26 00:09:10;;;;;;;15.87;12.47;;;15.10;99.90;;;;;;5048441;28;20829;-67
2023/07/26 00:11:37;;;;;;;21.00;16.13;;;15.10;99.90;;;;;;5048824;28;20443;-68
2023/07/26 00:14:04;;;;;;;14.63;12.93;;;15.10;99.90;;;;;;5048548;28;20485;-66
2023/07/26 00:16:33;;;;;;;19.90;15.33;;;15.10;99.90;;;;;;5048532;28;20475;-67
2023/07/26 00:19:00;;;;;;;23.40;13.30;;;15.00;99.90;;;;;;5044829;28;20545;-67
2023/07/26 00:21:27;;;;;;;17.70;13.30;;;15.00;99.90;;;;;;5046787;28;20747;-67
2023/07/26 00:23:54;;;;;;;24.63;13.70;;;15.00;99.90;;;;;;5045358;28;20503;-67
2023/07/26 00:26:21;;;;;;;18.60;13.53;;;14.90;99.90;;;;;;5047365;28;20690;-68
2023/07/26 00:28:48;;;;;;;27.57;16.10;;;14.90;99.90;;;;;;5048364;28;20888;-67
2023/07/26 00:31:15;;;;;;;18.00;12.20;;;14.80;99.90;;;;;;5045852;28;20471;-68
2023/07/26 00:33:43;;;;;;;22.73;16.07;;;14.80;99.90;;;;;;5036718;28;20467;-70
2023/07/26 00:36:10;;;;;;;13.63;12.20;;;14.80;99.90;;;;;;5047710;28;20549;-67
2023/07/26 00:38:37;;;;;;;18.93;14.57;;;14.80;99.90;;;;;;5043426;28;20786;-67
2023/07/26 00:41:06;;;;;;;16.00;12.73;;;14.80;99.90;;;;;;5046984;28;21065;-68
2023/07/26 00:43:33;;;;;;;22.63;13.53;;;14.80;99.90;;;;;;5046662;28;20961;-65
2023/07/26 00:46:00;;;;;;;17.67;14.37;;;14.70;99.90;;;;;;5047248;28;20582;-68
2023/07/26 00:48:27;;;;;;;25.30;14.70;;;14.60;99.90;;;;;;5046514;28;20759;-67
2023/07/26 00:50:56;;;;;;;30.60;14.70;;;14.60;99.90;;;;;;5046086;28;20510;-66
2023/07/26 00:53:23;;;;;;;20.50;14.73;;;14.50;99.90;;;;;;5045842;28;20486;-66
2023/07/26 00:55:51;;;;;;;22.10;15.00;;;14.60;99.90;;;;;;5047016;28;20466;-65
2023/07/26 00:58:18;;;;;;;17.93;12.90;;;14.60;99.90;;;;;;5048429;28;20593;-65
2023/07/26 01:00:45;;;;;;;24.40;16.40;;;14.50;99.90;;;;;;5039654;28;21194;-68
2023/07/26 01:03:12;;;;;;;23.37;15.30;;;14.50;99.90;;;;;;5047478;28;20491;-69
2023/07/26 01:05:49;;;;;;;25.33;18.10;;;14.50;99.90;;;;;;5044629;28;20485;-68
2023/07/26 01:08:27;;;;;;;22.20;16.13;;;14.40;99.90;;;;;;5045094;28;20485;-67
2023/07/26 01:10:58;;;;;;;19.13;16.37;;;14.20;99.90;;;;;;5045870;28;20776;-66
2023/07/26 01:13:33;;;;;;;19.00;15.60;;;14.20;99.90;;;;;;5046510;28;20470;-68
2023/07/26 01:16:01;;;;;;;26.97;16.70;;;14.10;99.90;;;;;;5044532;28;20492;-67
2023/07/26 01:18:28;;;;;;;19.80;14.27;;;14.10;99.90;;;;;;5046602;28;20483;-67
2023/07/26 01:20:54;;;;;;;19.17;14.43;;;14.10;99.90;;;;;;5046121;28;20468;-65
2023/07/26 01:23:23;;;;;;;20.60;13.87;;;14.20;99.90;;;;;;5018315;28;21197;-66
2023/07/26 01:25:50;;;;;;;19.90;16.83;;;14.20;99.90;;;;;;5044923;28;20470;-66
2023/07/26 01:28:16;;;;;;;17.40;13.67;;;14.20;99.90;;;;;;5046084;28;20477;-66
2023/07/26 01:30:44;;;;;;;23.10;15.10;;;14.10;99.90;;;;;;5044236;28;20477;-68
2023/07/26 01:33:13;;;;;;;20.53;14.27;;;14.10;99.90;;;;;;5033931;28;21348;-68
2023/07/26 01:35:41;;;;;;;25.73;18.90;;;14.20;99.90;;;;;;5042779;28;20495;-68
2023/07/26 01:38:08;;;;;;;14.10;12.60;;;14.20;99.90;;;;;;5046911;28;20479;-65
2023/07/26 01:40:37;;;;;;;22.30;14.77;;;14.30;99.90;;;;;;5044816;28;20672;-68
2023/07/26 01:43:04;;;;;;;17.97;15.07;;;14.40;99.90;;;;;;5046430;28;20475;-66
2023/07/26 01:45:31;;;;;;;26.50;17.20;;;14.30;99.90;;;;;;5047143;28;20473;-65
2023/07/26 01:47:59;;;;;;;22.80;14.57;;;14.20;99.90;;;;;;5041218;28;21032;-65
2023/07/26 01:50:26;;;;;;;21.10;14.47;;;14.10;99.90;;;;;;5039398;28;20478;-68
2023/07/26 01:52:53;;;;;;;19.10;14.40;;;14.00;99.90;;;;;;5040830;28;20533;-68
2023/07/26 01:55:19;;;;;;;19.73;13.77;;;14.00;99.90;;;;;;5039137;28;20488;-68
2023/07/26 01:57:48;;;;;;;23.87;16.40;;;14.00;99.90;;;;;;5039999;28;20492;-66
2023/07/26 02:00:15;;;;;;;23.87;15.83;;;14.00;99.90;;;;;;5039209;28;20474;-70
2023/07/26 02:02:42;;;;;;;23.57;16.80;;;13.90;99.90;;;;;;5041306;28;20494;-66
2023/07/26 02:05:09;;;;;;;23.70;15.57;;;13.90;99.90;;;;;;5041580;28;20486;-66
2023/07/26 02:07:36;;;;;;;21.67;16.70;;;12.50;99.90;;;;;;5038802;28;20568;-66
2023/07/26 02:10:02;;;;;;;19.57;15.00;;;13.70;99.90;;;;;;5039485;28;20474;-66
2023/07/26 02:12:29;;;;;;;22.10;15.47;;;13.70;99.90;;;;;;5040213;28;20475;-69
2023/07/26 02:14:59;;;;;;;19.60;15.27;;;13.70;99.90;;;;;;5044237;28;20489;-67
2023/07/26 02:17:26;;;;;;;24.60;16.33;;;13.60;99.90;;;;;;5009534;28;20636;-68
2023/07/26 02:19:52;;;;;;;26.37;18.57;;;13.60;99.90;;;;;;5041396;28;20474;-69
2023/07/26 02:22:19;;;;;;;27.40;18.60;;;13.50;99.90;;;;;;5039730;28;20913;-67
2023/07/26 02:24:46;;;;;;;26.17;19.70;;;13.50;99.90;;;;;;5040160;28;20482;-68
2023/07/26 02:27:13;;;;;;;25.90;19.10;;;13.50;99.90;;;;;;5038639;28;20474;-68
2023/07/26 02:29:40;;;;;;;30.43;21.97;;;13.50;99.90;;;;;;5040003;28;20471;-67
2023/07/26 02:32:08;;;;;;;34.27;20.03;;;13.40;99.90;;;;;;5039935;28;20526;-67
2023/07/26 02:34:37;;;;;;;34.33;16.87;;;13.50;99.90;;;;;;5042701;28;21168;-67
2023/07/26 02:37:04;;;;;;;24.40;16.80;;;13.50;99.90;;;;;;5038955;28;20489;-67
2023/07/26 02:39:31;;;;;;;21.30;17.20;;;13.60;99.90;;;;;;5042855;28;20480;-67
2023/07/26 02:41:57;;;;;;;22.03;16.73;;;13.60;99.90;;;;;;5044451;28;20499;-66
2023/07/26 02:44:24;;;;;;;19.00;16.07;;;13.50;99.90;;;;;;5043308;28;20478;-66
2023/07/26 02:46:51;;;;;;;21.33;18.90;;;13.50;99.90;;;;;;5039672;28;20489;-65
2023/07/26 02:49:19;;;;;;;28.67;19.60;;;13.50;99.90;;;;;;5043098;28;20798;-67
2023/07/26 02:51:46;;;;;;;30.43;20.20;;;13.50;99.90;;;;;;5041125;28;21043;-68
2023/07/26 02:54:13;;;;;;;23.60;17.60;;;13.60;99.90;;;;;;5041549;28;20509;-66
2023/07/26 02:56:40;;;;;;;26.73;19.60;;;13.50;99.90;;;;;;5042876;28;20879;-67
2023/07/26 02:59:06;;;;;;;24.40;17.67;;;13.60;99.90;;;;;;5040881;28;20855;-66
2023/07/26 03:01:33;;;;;;;26.63;17.80;;;13.60;99.90;;;;;;5043995;28;20478;-68
2023/07/26 03:04:00;;;;;;;21.10;16.80;;;13.70;99.90;;;;;;5030169;28;20566;-66
2023/07/26 03:06:29;;;;;;;22.00;17.43;;;13.70;99.90;;;;;;5038602;28;20577;-66
2023/07/26 03:08:55;;;;;;;26.50;16.70;;;13.70;99.90;;;;;;5037346;28;20474;-67
2023/07/26 03:11:22;;;;;;;22.50;15.70;;;13.70;99.90;;;;;;5041269;28;20570;-66
2023/07/26 03:13:49;;;;;;;24.20;18.33;;;13.80;99.90;;;;;;5038195;28;20481;-68
2023/07/26 03:16:17;;;;;;;27.83;16.93;;;13.80;99.90;;;;;;5040763;28;20489;-69
2023/07/26 03:18:44;;;;;;;29.90;21.40;;;13.90;99.90;;;;;;5038661;28;20908;-65
2023/07/26 03:21:11;;;;;;;28.67;17.57;;;13.90;99.90;;;;;;5039425;28;20558;-69
2023/07/26 03:23:40;;;;;;;21.10;17.07;;;13.90;99.90;;;;;;5041580;28;20481;-67
2023/07/26 03:26:07;;;;;;;20.83;17.83;;;13.90;99.90;;;;;;5019629;28;20903;-65
2023/07/26 03:28:34;;;;;;;27.30;21.40;;;13.90;99.90;;;;;;5025681;28;20485;-67
2023/07/26 03:31:01;;;;;;;23.90;16.57;;;13.90;99.90;;;;;;5044562;28;20490;-67
2023/07/26 03:33:28;;;;;;;20.93;18.43;;;14.00;99.90;;;;;;5046889;28;20491;-65
2023/07/26 03:35:54;;;;;;;23.10;17.07;;;14.00;99.90;;;;;;5048575;28;20474;-68
2023/07/26 03:38:21;;;;;;;22.50;18.40;;;14.00;99.90;;;;;;5046604;28;20483;-66
2023/07/26 03:40:50;;;;;;;23.87;18.73;;;14.00;99.90;;;;;;5050185;28;20479;-68
2023/07/26 03:43:16;;;;;;;21.13;15.40;;;14.00;99.90;;;;;;5047722;28;20504;-67
2023/07/26 03:45:44;;;;;;;24.70;18.53;;;14.10;99.90;;;;;;5048068;28;20665;-65
2023/07/26 03:48:11;;;;;;;22.73;18.90;;;14.10;99.90;;;;;;5047700;28;20483;-67
2023/07/26 03:50:38;;;;;;;25.97;18.37;;;14.10;99.90;;;;;;5048788;28;21133;-68
2023/07/26 03:53:05;;;;;;;21.40;16.90;;;14.10;99.90;;;;;;5047251;28;20475;-67
2023/07/26 03:55:32;;;;;;;22.40;17.60;;;14.10;99.90;;;;;;5042574;28;20478;-67
2023/07/26 03:58:00;;;;;;;24.20;16.20;;;14.10;99.90;;;;;;5044873;28;21005;-67
2023/07/26 04:00:27;;;;;;;22.80;15.53;;;14.10;99.90;;;;;;5045937;28;20480;-68
2023/07/26 04:02:54;;;;;;;21.30;16.60;;;14.10;99.90;;;;;;5044925;28;20555;-67
2023/07/26 04:05:21;;;;;;;22.00;15.77;;;15.50;99.90;;;;;;5046062;28;20533;-67
2023/07/26 04:07:48;;;;;;;27.27;17.90;;;14.10;99.90;;;;;;5042440;28;20574;-68
2023/07/26 04:10:14;;;;;;;20.47;14.60;;;14.10;99.90;;;;;;5045652;28;20478;-68
2023/07/26 04:12:41;;;;;;;22.53;17.63;;;14.10;99.90;;;;;;5033281;28;20871;-65
2023/07/26 04:15:11;;;;;;;25.70;15.70;;;14.10;99.90;;;;;;5032888;28;20482;-66
2023/07/26 04:17:37;;;;;;;19.10;15.93;;;14.20;99.90;;;;;;5040718;28;20491;-69
2023/07/26 04:20:05;;;;;;;15.33;13.33;;;14.30;99.90;;;;;;5041702;28;20484;-67
2023/07/26 04:22:32;;;;;;;19.00;13.90;;;14.40;99.90;;;;;;5042342;28;20491;-67
2023/07/26 04:24:59;;;;;;;14.57;13.00;;;14.30;99.90;;;;;;5042057;28;20972;-67
2023/07/26 04:27:26;;;;;;;24.50;14.87;;;14.40;99.90;;;;;;5042362;28;20487;-70
2023/07/26 04:29:53;;;;;;;18.80;13.77;;;14.30;99.90;;;;;;5041659;28;20472;-68
2023/07/26 04:32:21;;;;;;;18.73;14.07;;;14.50;99.90;;;;;;5043516;28;20476;-69
2023/07/26 04:34:48;;;;;;;24.43;17.27;;;14.40;99.90;;;;;;5041315;28;20803;-68
2023/07/26 04:37:15;;;;;;;17.23;13.37;;;14.50;99.90;;;;;;5042437;28;20485;-67
2023/07/26 04:39:42;;;;;;;24.60;15.90;;;14.50;99.90;;;;;;5040619;28;20478;-66
2023/07/26 04:42:08;;;;;;;19.83;12.70;;;14.60;99.90;;;;;;5044402;28;20471;-65
2023/07/26 04:44:35;;;;;;;18.23;14.73;;;14.60;99.90;;;;;;5042337;28;20529;-66
2023/07/26 04:47:02;;;;;;;17.33;13.40;;;14.70;99.90;;;;;;5031521;28;20491;-69
2023/07/26 04:49:30;;;;;;;23.33;13.33;;;14.70;99.90;;;;;;5028326;28;20494;-67
2023/07/26 04:51:57;;;;;;;21.73;12.27;;;14.80;99.90;;;;;;5044253;28;20840;-67
2023/07/26 04:54:24;;;;;;;17.40;12.63;;;14.90;99.90;;;;;;5029468;28;20853;-67
2023/07/26 04:56:51;;;;;;;19.27;14.27;;;14.90;99.90;;;;;;5036773;28;20475;-67
2023/07/26 04:59:18;;;;;;;22.83;13.60;;;14.90;99.90;;;;;;5044231;28;20872;-67
2023/07/26 05:01:44;;;;;;;19.60;14.67;;;14.90;99.90;;;;;;5040742;28;20484;-66
2023/07/26 05:04:11;;;;;;;15.53;13.87;;;15.00;99.90;;;;;;5044381;28;20479;-67
2023/07/26 05:06:39;;;;;;;19.57;15.70;;;15.10;99.90;;;;;;5040768;28;20480;-66
2023/07/26 05:09:06;;;;;;;15.73;12.63;;;15.20;99.90;;;;;;5043505;28;20509;-70
2023/07/26 05:11:33;;;;;;;21.33;14.30;;;15.30;99.90;;;;;;5037076;28;20486;-69
2023/07/26 05:14:00;;;;;;;17.83;14.07;;;15.40;99.90;;;;;;5045449;28;20807;-68
2023/07/26 05:16:27;;;;;;;16.03;13.20;;;15.40;99.90;;;;;;5044139;28;20479;-67
2023/07/26 05:18:57;;;;;;;13.80;12.07;;;15.50;99.90;;;;;;5043952;28;20490;-65
2023/07/26 05:21:24;;;;;;;16.40;11.13;;;15.50;99.90;;;;;;5043246;28;20877;-69
2023/07/26 05:23:52;;;;;;;18.03;13.63;;;15.40;99.90;;;;;;5043592;28;20640;-66
2023/07/26 05:26:19;;;;;;;14.13;12.47;;;15.40;99.90;;;;;;5044114;28;20504;-67
2023/07/26 05:28:46;;;;;;;18.50;14.60;;;15.20;99.90;;;;;;5042541;28;20476;-66
2023/07/26 05:31:13;;;;;;;20.70;12.17;;;15.30;99.90;;;;;;5043360;28;20478;-66
2023/07/26 05:33:40;;;;;;;18.60;14.57;;;15.40;99.90;;;;;;5043242;28;20472;-68
2023/07/26 05:36:07;;;;;;;13.13;11.77;;;15.40;99.90;;;;;;5033628;28;20487;-69
2023/07/26 05:38:34;;;;;;;15.57;13.13;;;15.40;99.90;;;;;;5036878;28;20974;-68
2023/07/26 05:41:06;;;;;;;16.77;12.70;;;15.50;99.90;;;;;;5030840;28;20479;-67
2023/07/26 05:43:34;;;;;;;26.77;13.57;;;15.60;99.90;;;;;;5012432;28;20490;-67
2023/07/26 05:46:02;;;;;;;13.03;11.70;;;15.60;99.90;;;;;;5041188;28;20478;-68
2023/07/26 05:48:28;;;;;;;15.03;12.67;;;15.70;99.90;;;;;;5031784;28;20482;-65
2023/07/26 05:50:55;;;;;;;18.03;13.43;;;15.50;99.90;;;;;;5039889;28;20509;-69
2023/07/26 05:53:22;;;;;;;16.53;14.33;;;15.30;99.90;;;;;;5042279;28;20488;-67
2023/07/26 05:55:49;;;;;;;19.17;13.63;;;14.80;99.90;;;;;;5040242;28;20847;-67
2023/07/26 05:58:17;;;;;;;17.93;12.87;;;15.10;99.90;;;;;;5033260;28;21126;-66
2023/07/26 06:00:44;;;;;;;18.10;16.23;;;15.20;99.90;;;;;;5042627;28;20485;-67
2023/07/26 06:03:11;;;;;;;16.90;12.07;;;15.20;99.90;;;;;;5041875;28;20487;-64
2023/07/26 06:05:38;;;;;;;18.20;16.33;;;15.30;99.90;;;;;;5039693;28;20477;-67
2023/07/26 06:08:05;;;;;;;18.03;16.10;;;15.20;99.90;;;;;;5037148;28;20489;-65
2023/07/26 06:10:31;;;;;;;18.37;14.70;;;15.20;99.90;;;;;;5027273;28;20661;-69
2023/07/26 06:12:58;;;;;;;18.33;13.30;;;15.20;99.90;;;;;;5042234;28;20479;-66
2023/07/26 06:15:28;;;;;;;17.17;13.93;;;15.20;99.90;;;;;;5025611;28;20813;-66
2023/07/26 06:17:55;;;;;;;20.13;14.23;;;15.20;99.90;;;;;;5038999;28;20476;-65
2023/07/26 06:20:22;;;;;;;17.77;14.63;;;15.20;99.90;;;;;;5042259;28;20475;-64
2023/07/26 06:22:49;;;;;;;17.40;14.23;;;15.20;99.90;;;;;;5042500;28;20493;-68
2023/07/26 06:25:16;;;;;;;14.03;12.57;;;15.20;99.90;;;;;;5040952;28;20484;-65
2023/07/26 06:27:42;;;;;;;16.50;14.50;;;15.10;99.90;;;;;;5043044;28;20474;-66
2023/07/26 06:30:11;;;;;;;13.73;11.33;;;15.20;99.90;;;;;;5042518;28;20468;-65
2023/07/26 06:32:40;;;;;;;12.43;10.97;;;15.20;99.90;;;;;;5039632;28;20504;-65
2023/07/26 06:35:08;;;;;;;12.10;9.97;;;15.20;99.90;;;;;;5043417;28;20477;-66
2023/07/26 06:37:35;;;;;;;11.40;10.10;;;15.20;99.90;;;;;;5041293;28;20487;-64
2023/07/26 06:40:03;;;;;;;10.43;8.73;;;15.30;99.90;;;;;;5029594;28;20822;-63
2023/07/26 06:42:30;;;;;;;10.30;9.23;;;15.50;99.90;;;;;;5028104;28;20620;-64
2023/07/26 06:44:57;;;;;;;8.80;7.90;;;15.60;99.90;;;;;;5030771;28;20492;-65
2023/07/26 06:47:23;;;;;;;12.80;9.00;;;15.60;99.90;;;;;;5039992;28;20482;-63
2023/07/26 06:49:52;;;;;;;20.30;12.10;;;15.60;99.90;;;;;;5027789;28;20519;-64
2023/07/26 06:52:19;;;;;;;10.90;9.60;;;15.80;99.90;;;;;;5041776;28;20855;-63
2023/07/26 06:54:45;;;;;;;13.13;11.73;;;15.80;99.90;;;;;;5040004;28;20510;-64
2023/07/26 06:57:12;;;;;;;13.37;9.27;;;15.90;99.90;;;;;;5041638;28;20986;-64
2023/07/26 06:59:39;;;;;;;14.67;12.30;;;16.00;99.90;;;;;;5039916;28;20488;-62
2023/07/26 07:02:06;;;;;;;11.67;8.40;;;16.00;99.90;;;;;;5044740;28;20474;-63
2023/07/26 07:04:34;;;;;;;10.73;9.70;;;16.10;99.90;;;;;;5044643;28;20465;-63
2023/07/26 07:07:02;;;;;;;17.23;10.20;;;16.10;99.90;;;;;;5044241;28;20482;-63
2023/07/26 07:09:29;;;;;;;11.57;10.37;;;16.10;99.90;;;;;;5031280;28;21004;-64
2023/07/26 07:11:55;;;;;;;10.70;9.30;;;16.10;99.90;;;;;;5044662;28;20483;-63
2023/07/26 07:14:22;;;;;;;12.40;9.33;;;16.10;99.90;;;;;;5047151;28;21229;-63
2023/07/26 07:16:49;;;;;;;12.43;11.10;;;16.20;99.90;;;;;;5033089;28;20580;-63
2023/07/26 07:19:16;;;;;;;10.70;9.53;;;16.20;99.90;;;;;;5040102;28;20849;-63
2023/07/26 07:21:44;;;;;;;13.60;12.27;;;16.30;99.90;;;;;;5043322;28;20879;-63
2023/07/26 07:24:12;;;;;;;9.63;8.80;;;16.50;99.90;;;;;;5048199;28;20514;-63
2023/07/26 07:26:39;;;;;;;13.13;11.20;;;16.50;99.90;;;;;;5016921;28;21412;-64
2023/07/26 07:29:06;;;;;;;8.90;7.77;;;16.60;99.90;;;;;;5043674;28;20481;-63
2023/07/26 07:31:34;;;;;;;11.93;9.60;;;16.60;99.90;;;;;;5041430;28;20820;-64
2023/07/26 07:34:00;;;;;;;10.20;9.07;;;16.70;99.90;;;;;;5046184;28;22262;-64
2023/07/26 07:36:27;;;;;;;13.33;8.67;;;16.90;99.90;;;;;;5042449;28;20476;-67
2023/07/26 07:38:54;;;;;;;12.80;8.67;;;17.00;99.90;;;;;;5043135;28;20468;-64
2023/07/26 07:41:22;;;;;;;12.90;9.50;;;17.00;99.90;;;;;;5042846;28;20475;-65
2023/07/26 07:43:50;;;;;;;10.90;9.80;;;17.00;99.90;;;;;;5044888;28;20475;-64
2023/07/26 07:46:16;;;;;;;9.30;8.60;;;17.20;99.90;;;;;;5046437;28;20479;-63
2023/07/26 07:48:43;;;;;;;10.53;9.40;;;17.40;99.90;;;;;;5039686;28;21068;-66
2023/07/26 07:51:10;;;;;;;8.57;6.73;;;17.40;99.90;;;;;;5042382;28;20492;-66
2023/07/26 07:53:37;;;;;;;9.90;8.90;;;17.60;99.90;;;;;;5041873;28;20486;-63
2023/07/26 07:56:04;;;;;;;7.80;6.17;;;17.60;99.90;;;;;;5033634;28;21409;-62
2023/07/26 07:58:32;;;;;;;7.93;6.80;;;17.70;99.90;;;;;;5046827;28;21312;-66
2023/07/26 08:00:59;;;;;;;7.07;6.20;;;17.90;99.90;;;;;;5044304;28;21013;-67
2023/07/26 08:03:26;;;;;;;8.47;7.60;;;18.00;99.90;;;;;;5048163;28;20476;-67
2023/07/26 08:05:53;;;;;;;8.23;7.10;;;18.00;99.90;;;;;;5035590;28;20559;-66
2023/07/26 08:08:21;;;;;;;7.40;6.70;;;18.20;99.90;;;;;;5044185;28;20483;-62
2023/07/26 08:10:48;;;;;;;9.63;8.67;;;18.20;99.90;;;;;;5045742;28;20475;-63
2023/07/26 08:13:15;;;;;;;8.70;7.80;;;18.40;99.90;;;;;;5046933;28;20857;-67
2023/07/26 08:15:43;;;;;;;8.60;7.90;;;18.60;99.90;;;;;;5046318;28;20521;-68
2023/07/26 08:18:10;;;;;;;8.13;7.30;;;18.80;99.90;;;;;;5046695;28;20563;-65
2023/07/26 08:20:37;;;;;;;9.37;8.47;;;18.80;99.90;;;;;;5045490;28;20483;-64
2023/07/26 08:23:05;;;;;;;10.90;7.40;;;18.80;99.90;;;;;;5037666;28;20476;-65
2023/07/26 08:25:32;;;;;;;7.60;7.00;;;18.90;99.90;;;;;;5043083;28;20480;-63
2023/07/26 08:27:59;;;;;;;7.10;6.50;;;19.10;99.90;;;;;;5039898;28;20473;-65
2023/07/26 08:30:26;;;;;;;7.80;7.20;;;18.90;99.90;;;;;;5042188;28;20487;-65
2023/07/26 08:32:54;;;;;;;7.60;7.00;;;18.90;99.90;;;;;;5041418;28;20537;-65
2023/07/26 08:35:21;;;;;;;8.37;6.20;;;19.00;99.90;;;;;;5043893;28;20482;-66
2023/07/26 08:37:48;;;;;;;8.80;7.70;;;19.10;99.90;;;;;;5039484;28;20984;-66
2023/07/26 08:40:15;;;;;;;8.20;6.43;;;19.20;99.90;;;;;;5033516;28;20490;-67
2023/07/26 08:42:43;;;;;;;9.73;7.50;;;19.00;99.90;;;;;;5040333;28;20484;-62
2023/07/26 08:45:11;;;;;;;8.63;6.37;;;18.90;99.90;;;;;;5042239;28;20476;-63
2023/07/26 08:47:38;;;;;;;7.37;6.40;;;18.90;99.90;;;;;;5041444;28;20490;-63
2023/07/26 08:50:08;;;;;;;5.73;5.10;;;18.80;99.90;;;;;;5032934;28;20480;-64
2023/07/26 08:52:35;;;;;;;7.70;7.00;;;18.90;99.90;;;;;;5041147;28;20510;-65
2023/07/26 08:55:02;;;;;;;8.23;7.30;;;18.90;99.90;;;;;;5042038;28;20479;-67
2023/07/26 08:57:29;;;;;;;8.27;7.50;;;18.70;99.90;;;;;;5045440;28;20862;-65
2023/07/26 08:59:57;;;;;;;11.17;8.30;;;18.70;99.90;;;;;;5042479;28;20677;-64
2023/07/26 09:02:24;;;;;;;8.87;6.90;;;18.60;99.90;;;;;;5049342;28;20516;-66
2023/07/26 09:04:51;;;;;;;8.20;7.50;;;18.70;99.90;;;;;;5045838;28;20509;-61
2023/07/26 09:07:20;;;;;;;9.80;8.40;;;18.50;99.90;;;;;;5041680;28;20476;-64
2023/07/26 09:09:47;;;;;;;12.37;8.80;;;18.30;99.90;;;;;;5040161;28;20489;-62
2023/07/26 09:12:26;;;;;;;8.00;7.27;;;18.50;99.90;;;;;;5031790;28;20483;-64
2023/07/26 09:14:55;;;;;;;8.40;7.60;;;18.40;99.90;;;;;;5042870;28;20517;-62
2023/07/26 09:17:22;;;;;;;10.90;8.67;;;18.60;99.90;;;;;;5038680;28;21192;-64
2023/07/26 09:19:51;;;;;;;9.03;8.23;;;19.20;99.90;;;;;;5042279;28;21007;-66
2023/07/26 09:22:19;;;;;;;6.93;6.20;;;18.70;99.90;;;;;;5040652;28;20506;-63
2023/07/26 09:24:50;;;;;;;10.40;8.67;;;18.80;99.90;;;;;;5041451;28;20846;-66
2023/07/26 09:27:19;;;;;;;8.93;6.93;;;18.60;99.90;;;;;;5044685;28;20483;-63
2023/07/26 09:29:55;;;;;;;9.37;8.47;;;18.70;99.90;;;;;;5026487;28;20475;-63
2023/07/26 09:32:28;;;;;;;11.17;7.20;;;18.70;99.90;;;;;;5044396;28;21210;-63
2023/07/26 09:34:59;;;;;;;8.33;6.83;;;18.70;99.90;;;;;;5040346;28;20482;-65
2023/07/26 09:37:28;;;;;;;10.13;7.10;;;18.80;99.90;;;;;;5043896;28;20853;-62
2023/07/26 09:39:55;;;;;;;7.77;6.00;;;18.90;99.90;;;;;;5017313;28;20776;-63
2023/07/26 09:42:22;;;;;;;7.37;6.60;;;19.00;99.70;;;;;;5039233;28;20475;-64
2023/07/26 09:44:56;;;;;;;8.87;8.13;;;19.00;99.40;;;;;;5041781;28;20490;-66
2023/07/26 09:47:35;;;;;;;8.57;7.00;;;18.70;98.90;;;;;;5043016;28;20486;-63
2023/07/26 09:50:02;;;;;;;10.10;5.80;;;18.80;99.20;;;;;;5042649;28;20509;-64
2023/07/26 09:52:31;;;;;;;8.00;6.97;;;18.70;99.20;;;;;;5042355;28;20488;-64
2023/07/26 09:55:00;;;;;;;6.97;6.37;;;18.70;98.50;;;;;;5030006;28;20482;-62
2023/07/26 09:57:29;;;;;;;11.13;6.80;;;18.70;99.00;;;;;;5021777;28;20482;-63
2023/07/26 10:00:00;;;;;;;8.40;7.23;;;18.70;98.40;;;;;;5036544;28;20471;-65
2023/07/26 10:02:29;;;;;;;7.80;6.83;;;18.90;99.20;;;;;;5040903;28;20491;-62
2023/07/26 10:04:58;;;;;;;6.63;5.63;;;19.10;99.10;;;;;;5040674;28;20483;-62
2023/07/26 10:07:28;;;;;;;6.40;5.80;;;19.40;97.60;;;;;;5021590;28;20492;-61
2023/07/26 10:09:58;;;;;;;7.87;5.93;;;19.50;98.30;;;;;;5036870;28;20972;-64
2023/07/26 10:12:29;;;;;;;6.80;6.03;;;19.60;97.30;;;;;;5041305;28;20479;-64
2023/07/26 10:14:57;;;;;;;6.37;5.80;;;19.70;96.40;;;;;;5039771;28;20695;-63
2023/07/26 10:17:26;;;;;;;7.90;6.43;;;19.80;97.30;;;;;;5035896;28;20485;-63
2023/07/26 10:19:55;;;;;;;6.90;5.43;;;19.60;95.70;;;;;;5040554;28;20471;-62
2023/07/26 10:22:22;;;;;;;7.07;6.30;;;19.50;95.70;;;;;;5039713;28;20482;-65
2023/07/26 10:24:49;;;;;;;7.27;6.67;;;19.40;95.60;;;;;;5042736;28;21035;-64
2023/07/26 10:27:17;;;;;;;6.17;5.67;;;19.40;96.40;;;;;;5038783;28;20499;-62
2023/07/26 10:29:45;;;;;;;10.93;8.73;;;19.40;96.40;;;;;;5041144;28;20483;-62
2023/07/26 10:32:11;;;;;;;6.17;5.57;;;19.20;96.00;;;;;;5040271;28;20468;-62
2023/07/26 10:34:38;;;;;;;11.17;8.93;;;19.10;96.30;;;;;;5041449;28;21093;-64
2023/07/26 10:37:16;;;;;;;8.60;5.50;;;19.20;97.10;;;;;;5044595;28;21082;-63
2023/07/26 10:39:44;;;;;;;11.70;7.77;;;19.10;95.90;;;;;;5045655;28;20543;-63
2023/07/26 10:42:24;;;;;;;5.60;5.10;;;19.20;96.70;;;;;;5046096;28;20527;-65
2023/07/26 10:44:51;;;;;;;7.67;6.90;;;19.20;97.20;;;;;;5033467;28;20467;-63
2023/07/26 10:47:18;;;;;;;5.40;4.67;;;19.30;95.50;;;;;;5046126;28;20490;-63
2023/07/26 10:49:48;;;;;;;8.80;8.10;;;19.40;96.10;;;;;;5043996;28;20852;-62
2023/07/26 10:52:15;;;;;;;8.70;6.33;;;19.50;95.80;;;;;;5045893;28;20468;-63
2023/07/26 10:54:44;;;;;;;9.07;8.17;;;19.60;95.30;;;;;;5045279;28;20483;-63
2023/07/26 10:57:28;;;;;;;7.93;5.67;;;19.70;94.40;;;;;;5044254;28;20482;-63
2023/07/26 10:59:58;;;;;;;6.47;5.43;;;19.70;94.80;;;;;;5046535;28;20486;-63
2023/07/26 11:02:43;;;;;;;9.60;6.00;;;19.70;93.40;;;;;;5045447;28;20538;-62
2023/07/26 11:05:15;;;;;;;6.97;5.10;;;19.80;94.10;;;;;;5050135;28;21133;-63
2023/07/26 11:07:50;;;;;;;7.20;6.50;;;19.90;95.40;;;;;;5044647;28;20471;-64
2023/07/26 11:10:19;;;;;;;10.73;6.03;;;19.90;95.40;;;;;;5019005;28;21029;-61
2023/07/26 11:12:50;;;;;;;8.27;7.33;;;20.00;95.90;;;;;;5038624;28;20474;-64
2023/07/26 11:15:27;;;;;;;11.13;5.90;;;20.00;93.70;;;;;;5046917;28;21001;-62
2023/07/26 11:17:54;;;;;;;9.80;6.23;;;19.90;94.50;;;;;;5031252;28;20589;-63
2023/07/26 11:20:21;;;;;;;6.87;5.90;;;20.00;94.00;;;;;;5045247;28;20512;-64
2023/07/26 11:22:49;;;;;;;11.80;7.97;;;20.00;94.30;;;;;;5037901;28;20471;-62
2023/07/26 11:25:16;;;;;;;6.53;5.90;;;20.00;93.80;;;;;;5048135;28;20491;-64
2023/07/26 11:27:44;;;;;;;7.67;6.97;;;20.00;94.10;;;;;;5028524;28;20513;-63
2023/07/26 11:30:16;;;;;;;6.50;5.00;;;20.00;93.80;;;;;;5043554;28;20508;-63
2023/07/26 11:32:46;;;;;;;10.27;7.73;;;20.10;94.30;;;;;;5042452;28;20477;-63
2023/07/26 11:35:15;;;;;;;7.40;6.20;;;20.10;94.20;;;;;;5017093;28;20491;-63
2023/07/26 11:37:51;;;;;;;7.57;5.97;;;20.20;94.10;;;;;;5043230;28;20530;-63
2023/07/26 11:40:18;;;;;;;7.57;6.10;;;20.10;93.50;;;;;;5025110;28;20491;-62
2023/07/26 11:42:45;;;;;;;7.90;6.73;;;20.20;94.50;;;;;;5018444;28;20587;-60
2023/07/26 11:45:15;;;;;;;7.17;5.97;;;20.20;94.20;;;;;;5043365;28;20575;-63
2023/07/26 11:47:42;;;;;;;12.57;7.73;;;20.40;94.30;;;;;;5029359;28;21093;-63
2023/07/26 11:50:10;;;;;;;8.00;6.50;;;20.50;94.00;;;;;;5014892;28;20510;-64
2023/07/26 11:52:38;;;;;;;6.73;6.00;;;20.40;93.10;;;;;;5040757;28;20483;-63
2023/07/26 11:55:06;;;;;;;6.33;5.27;;;20.30;92.40;;;;;;5025916;28;20878;-65
2023/07/26 11:57:34;;;;;;;7.30;5.63;;;20.40;93.00;;;;;;5002776;28;20487;-65
2023/07/26 12:00:04;;;;;;;6.77;5.00;;;20.30;92.80;;;;;;5022388;28;20479;-63
2023/07/26 12:02:34;;;;;;;19.83;6.70;;;20.10;92.00;;;;;;5027179;28;20516;-61
2023/07/26 12:05:21;;;;;;;7.50;5.53;;;20.00;92.40;;;;;;5042083;28;21164;-62
2023/07/26 12:07:50;;;;;;;12.33;6.93;;;19.90;93.20;;;;;;5005332;28;20859;-63
2023/07/26 12:10:19;;;;;;;7.47;6.20;;;19.70;92.90;;;;;;5026082;28;20491;-63
2023/07/26 12:12:48;;;;;;;7.40;6.70;;;19.60;93.10;;;;;;5013262;28;21018;-63
2023/07/26 12:15:15;;;;;;;7.10;6.00;;;19.60;93.10;;;;;;5004575;28;20488;-64
2023/07/26 12:18:01;;;;;;;6.70;5.97;;;19.60;92.60;;;;;;5030367;28;20499;-63
2023/07/26 12:20:30;;;;;;;4.07;3.77;;;19.40;92.40;;;;;;5038476;28;20484;-62
2023/07/26 12:22:59;;;;;;;3.73;3.43;;;19.30;92.30;;;;;;5022161;28;21214;-65
2023/07/26 12:25:36;;;;;;;3.83;3.43;;;19.50;92.90;;;;;;5005101;28;20504;-63
2023/07/26 12:28:06;;;;;;;4.40;4.10;;;19.60;91.00;;;;;;5038020;28;20481;-64
2023/07/26 12:30:33;;;;;;;3.47;3.20;;;19.80;91.60;;;;;;5038966;28;20490;-65
2023/07/26 12:33:13;;;;;;;3.57;3.30;;;19.90;91.20;;;;;;5045704;28;20483;-62
2023/07/26 12:35:40;;;;;;;4.77;4.47;;;20.00;91.10;;;;;;5014956;28;20590;-61
2023/07/26 12:38:12;;;;;;;3.90;3.50;;;20.00;91.00;;;;;;5045928;28;20553;-63
2023/07/26 12:40:39;;;;;;;3.57;3.17;;;20.10;92.00;;;;;;5003886;28;20481;-64